sensor_id;sensor_type;location;lat;lon;timestamp;temperature;humidity
74661;SHT31;63191;39.566;2.654;2022-12-26T00:01:56;13.82;85.84
74661;SHT31;63191;39.566;2.654;2022-12-26T00:04:24;13.80;85.85
74661;SHT31;63191;39.566;2.654;2022-12-26T00:06:50;13.76;85.84
74661;SHT31;63191;39.566;2.654;2022-12-26T00:09:16;13.71;85.91
74661;SHT31;63191;39.566;2.654;2022-12-26T00:11:42;13.65;85.99
74661;SHT31;63191;39.566;2.654;2022-12-26T00:14:10;13.59;86.09
74661;SHT31;63191;39.566;2.654;2022-12-26T00:16:39;13.57;86.18
74661;SHT31;63191;39.566;2.654;2022-12-26T00:19:07;13.54;86.20
74661;SHT31;63191;39.566;2.654;2022-12-26T00:21:34;13.52;86.20
74661;SHT31;63191;39.566;2.654;2022-12-26T00:24:00;13.47;86.14
74661;SHT31;63191;39.566;2.654;2022-12-26T00:26:27;13.43;86.13
74661;SHT31;63191;39.566;2.654;2022-12-26T00:28:56;13.36;86.10
74661;SHT31;63191;39.566;2.654;2022-12-26T00:31:24;13.29;86.10
74661;SHT31;63191;39.566;2.654;2022-12-26T00:33:52;13.23;86.10
74661;SHT31;63191;39.566;2.654;2022-12-26T00:36:20;13.19;86.02
74661;SHT31;63191;39.566;2.654;2022-12-26T00:38:52;13.16;85.93
74661;SHT31;63191;39.566;2.654;2022-12-26T00:41:18;13.14;85.85
74661;SHT31;63191;39.566;2.654;2022-12-26T00:43:45;13.11;85.80
74661;SHT31;63191;39.566;2.654;2022-12-26T00:46:12;13.07;85.74
74661;SHT31;63191;39.566;2.654;2022-12-26T00:48:37;13.05;85.70
74661;SHT31;63191;39.566;2.654;2022-12-26T00:51:03;13.01;85.60
74661;SHT31;63191;39.566;2.654;2022-12-26T00:53:30;12.97;85.48
74661;SHT31;63191;39.566;2.654;2022-12-26T00:55:57;12.93;85.37
74661;SHT31;63191;39.566;2.654;2022-12-26T00:58:23;12.91;85.18
74661;SHT31;63191;39.566;2.654;2022-12-26T01:00:49;12.91;84.94
74661;SHT31;63191;39.566;2.654;2022-12-26T01:03:16;12.90;84.69
74661;SHT31;63191;39.566;2.654;2022-12-26T01:05:47;12.89;84.47
74661;SHT31;63191;39.566;2.654;2022-12-26T01:08:16;12.87;84.32
74661;SHT31;63191;39.566;2.654;2022-12-26T01:10:44;12.83;84.16
74661;SHT31;63191;39.566;2.654;2022-12-26T01:13:11;12.80;84.08
74661;SHT31;63191;39.566;2.654;2022-12-26T01:15:38;12.76;83.99
74661;SHT31;63191;39.566;2.654;2022-12-26T01:18:04;12.76;83.92
74661;SHT31;63191;39.566;2.654;2022-12-26T01:20:30;12.77;83.84
74661;SHT31;63191;39.566;2.654;2022-12-26T01:22:56;12.77;83.76
74661;SHT31;63191;39.566;2.654;2022-12-26T01:25:22;12.78;83.67
74661;SHT31;63191;39.566;2.654;2022-12-26T01:27:48;12.77;83.59
74661;SHT31;63191;39.566;2.654;2022-12-26T01:30:15;12.75;83.42
74661;SHT31;63191;39.566;2.654;2022-12-26T01:32:42;12.72;83.20
74661;SHT31;63191;39.566;2.654;2022-12-26T01:35:08;12.69;82.94
74661;SHT31;63191;39.566;2.654;2022-12-26T01:37:35;12.65;82.73
74661;SHT31;63191;39.566;2.654;2022-12-26T01:40:03;12.64;82.52
74661;SHT31;63191;39.566;2.654;2022-12-26T01:42:35;12.63;82.32
74661;SHT31;63191;39.566;2.654;2022-12-26T01:50:23;12.61;82.10
74661;SHT31;63191;39.566;2.654;2022-12-26T01:52:53;12.61;82.26
74661;SHT31;63191;39.566;2.654;2022-12-26T01:55:24;12.61;82.36
74661;SHT31;63191;39.566;2.654;2022-12-26T01:57:54;12.61;82.26
74661;SHT31;63191;39.566;2.654;2022-12-26T02:00:27;12.57;82.12
74661;SHT31;63191;39.566;2.654;2022-12-26T02:02:53;12.56;82.08
74661;SHT31;63191;39.566;2.654;2022-12-26T02:05:57;12.57;82.20
74661;SHT31;63191;39.566;2.654;2022-12-26T02:08:29;12.59;82.25
74661;SHT31;63191;39.566;2.654;2022-12-26T02:13:42;12.60;82.35
74661;SHT31;63191;39.566;2.654;2022-12-26T02:16:09;12.58;82.30
74661;SHT31;63191;39.566;2.654;2022-12-26T02:18:38;12.56;82.39
74661;SHT31;63191;39.566;2.654;2022-12-26T02:23:53;12.52;82.59
74661;SHT31;63191;39.566;2.654;2022-12-26T02:27:01;12.48;82.64
74661;SHT31;63191;39.566;2.654;2022-12-26T02:36:23;12.53;82.54
74661;SHT31;63191;39.566;2.654;2022-12-26T02:42:09;12.52;82.59
74661;SHT31;63191;39.566;2.654;2022-12-26T02:44:54;12.51;82.60
74661;SHT31;63191;39.566;2.654;2022-12-26T02:48:16;12.50;82.61
74661;SHT31;63191;39.566;2.654;2022-12-26T02:57:21;12.55;82.36
74661;SHT31;63191;39.566;2.654;2022-12-26T03:00:18;12.56;82.29
74661;SHT31;63191;39.566;2.654;2022-12-26T03:03:17;12.56;82.21
74661;SHT31;63191;39.566;2.654;2022-12-26T03:09:10;12.51;82.05
74661;SHT31;63191;39.566;2.654;2022-12-26T03:11:59;12.47;81.99
74661;SHT31;63191;39.566;2.654;2022-12-26T03:14:58;12.44;81.91
74661;SHT31;63191;39.566;2.654;2022-12-26T03:17:29;12.42;81.90
74661;SHT31;63191;39.566;2.654;2022-12-26T03:20:04;12.40;81.87
74661;SHT31;63191;39.566;2.654;2022-12-26T03:25:23;12.40;81.74
74661;SHT31;63191;39.566;2.654;2022-12-26T03:28:12;12.40;81.70
74661;SHT31;63191;39.566;2.654;2022-12-26T03:30:39;12.37;81.70
74661;SHT31;63191;39.566;2.654;2022-12-26T03:33:32;12.35;81.70
74661;SHT31;63191;39.566;2.654;2022-12-26T03:36:27;12.31;81.71
74661;SHT31;63191;39.566;2.654;2022-12-26T03:39:08;12.28;81.70
74661;SHT31;63191;39.566;2.654;2022-12-26T03:42:17;12.23;81.71
74661;SHT31;63191;39.566;2.654;2022-12-26T03:45:26;12.22;81.70
74661;SHT31;63191;39.566;2.654;2022-12-26T03:51:26;12.23;81.60
74661;SHT31;63191;39.566;2.654;2022-12-26T03:54:42;12.20;81.53
74661;SHT31;63191;39.566;2.654;2022-12-26T03:57:50;12.17;81.48
74661;SHT31;63191;39.566;2.654;2022-12-26T04:00:44;12.13;81.43
74661;SHT31;63191;39.566;2.654;2022-12-26T04:03:30;12.10;81.35
74661;SHT31;63191;39.566;2.654;2022-12-26T04:06:21;12.09;81.25
74661;SHT31;63191;39.566;2.654;2022-12-26T04:09:18;12.11;81.17
74661;SHT31;63191;39.566;2.654;2022-12-26T04:12:11;12.11;81.05
74661;SHT31;63191;39.566;2.654;2022-12-26T04:15:04;12.11;80.96
74661;SHT31;63191;39.566;2.654;2022-12-26T04:18:01;12.09;80.90
74661;SHT31;63191;39.566;2.654;2022-12-26T04:21:25;12.07;80.84
74661;SHT31;63191;39.566;2.654;2022-12-26T04:24:19;12.04;80.76
74661;SHT31;63191;39.566;2.654;2022-12-26T04:27:10;11.99;80.64
74661;SHT31;63191;39.566;2.654;2022-12-26T04:29:59;11.96;80.53
74661;SHT31;63191;39.566;2.654;2022-12-26T04:32:44;11.95;80.51
74661;SHT31;63191;39.566;2.654;2022-12-26T04:35:32;11.97;80.60
74661;SHT31;63191;39.566;2.654;2022-12-26T04:38:29;11.98;80.68
74661;SHT31;63191;39.566;2.654;2022-12-26T04:41:19;11.99;80.81
74661;SHT31;63191;39.566;2.654;2022-12-26T04:44:04;11.99;80.95
74661;SHT31;63191;39.566;2.654;2022-12-26T04:46:42;11.99;81.00
74661;SHT31;63191;39.566;2.654;2022-12-26T04:49:12;11.98;80.96
74661;SHT31;63191;39.566;2.654;2022-12-26T04:52:00;11.97;80.91
74661;SHT31;63191;39.566;2.654;2022-12-26T04:54:28;11.94;80.90
74661;SHT31;63191;39.566;2.654;2022-12-26T04:56:54;11.93;80.86
74661;SHT31;63191;39.566;2.654;2022-12-26T04:59:20;11.93;80.77
74661;SHT31;63191;39.566;2.654;2022-12-26T05:01:46;11.95;80.64
74661;SHT31;63191;39.566;2.654;2022-12-26T05:04:31;11.97;80.44
74661;SHT31;63191;39.566;2.654;2022-12-26T05:10:20;11.99;80.22
74661;SHT31;63191;39.566;2.654;2022-12-26T05:12:49;12.02;80.21
74661;SHT31;63191;39.566;2.654;2022-12-26T05:15:16;12.02;80.20
74661;SHT31;63191;39.566;2.654;2022-12-26T05:17:42;12.02;80.19
74661;SHT31;63191;39.566;2.654;2022-12-26T05:20:26;12.01;80.28
74661;SHT31;63191;39.566;2.654;2022-12-26T05:23:18;12.05;80.43
74661;SHT31;63191;39.566;2.654;2022-12-26T05:26:08;12.11;80.50
74661;SHT31;63191;39.566;2.654;2022-12-26T05:29:00;12.14;80.51
74661;SHT31;63191;39.566;2.654;2022-12-26T05:31:28;12.16;80.51
74661;SHT31;63191;39.566;2.654;2022-12-26T05:33:55;12.15;80.54
74661;SHT31;63191;39.566;2.654;2022-12-26T05:36:36;12.16;80.58
74661;SHT31;63191;39.566;2.654;2022-12-26T05:39:06;12.14;80.60
74661;SHT31;63191;39.566;2.654;2022-12-26T05:41:34;12.12;80.60
74661;SHT31;63191;39.566;2.654;2022-12-26T05:44:01;12.11;80.60
74661;SHT31;63191;39.566;2.654;2022-12-26T05:46:27;12.07;80.60
74661;SHT31;63191;39.566;2.654;2022-12-26T05:48:53;12.05;80.59
74661;SHT31;63191;39.566;2.654;2022-12-26T05:51:29;12.03;80.35
74661;SHT31;63191;39.566;2.654;2022-12-26T05:53:55;12.01;80.06
74661;SHT31;63191;39.566;2.654;2022-12-26T05:56:21;12.01;79.94
74661;SHT31;63191;39.566;2.654;2022-12-26T05:58:52;11.98;79.70
74661;SHT31;63191;39.566;2.654;2022-12-26T06:01:19;11.96;79.39
74661;SHT31;63191;39.566;2.654;2022-12-26T06:03:46;11.93;79.34
74661;SHT31;63191;39.566;2.654;2022-12-26T06:06:18;11.91;79.39
74661;SHT31;63191;39.566;2.654;2022-12-26T06:08:49;11.90;79.47
74661;SHT31;63191;39.566;2.654;2022-12-26T06:11:17;11.88;79.64
74661;SHT31;63191;39.566;2.654;2022-12-26T06:13:44;11.87;79.78
74661;SHT31;63191;39.566;2.654;2022-12-26T06:16:11;11.86;79.88
74661;SHT31;63191;39.566;2.654;2022-12-26T06:18:40;11.88;79.97
74661;SHT31;63191;39.566;2.654;2022-12-26T06:21:10;11.91;80.03
74661;SHT31;63191;39.566;2.654;2022-12-26T06:23:40;11.94;80.14
74661;SHT31;63191;39.566;2.654;2022-12-26T06:26:09;11.97;80.26
74661;SHT31;63191;39.566;2.654;2022-12-26T06:28:43;11.97;80.35
74661;SHT31;63191;39.566;2.654;2022-12-26T06:31:10;11.98;80.40
74661;SHT31;63191;39.566;2.654;2022-12-26T06:33:40;11.96;80.43
74661;SHT31;63191;39.566;2.654;2022-12-26T06:36:07;11.96;80.50
74661;SHT31;63191;39.566;2.654;2022-12-26T06:38:39;11.94;80.50
74661;SHT31;63191;39.566;2.654;2022-12-26T06:41:05;11.93;80.50
74661;SHT31;63191;39.566;2.654;2022-12-26T06:43:33;11.94;80.49
74661;SHT31;63191;39.566;2.654;2022-12-26T06:45:59;11.96;80.39
74661;SHT31;63191;39.566;2.654;2022-12-26T06:48:27;11.97;80.40
74661;SHT31;63191;39.566;2.654;2022-12-26T06:50:53;11.98;80.40
74661;SHT31;63191;39.566;2.654;2022-12-26T06:53:20;11.98;80.40
74661;SHT31;63191;39.566;2.654;2022-12-26T06:55:48;11.98;80.37
74661;SHT31;63191;39.566;2.654;2022-12-26T06:58:16;11.97;80.30
74661;SHT31;63191;39.566;2.654;2022-12-26T07:00:43;11.96;80.20
74661;SHT31;63191;39.566;2.654;2022-12-26T07:03:09;11.96;80.05
74661;SHT31;63191;39.566;2.654;2022-12-26T07:05:35;11.96;79.90
74661;SHT31;63191;39.566;2.654;2022-12-26T07:08:02;11.96;79.77
74661;SHT31;63191;39.566;2.654;2022-12-26T07:10:28;11.98;79.66
74661;SHT31;63191;39.566;2.654;2022-12-26T07:12:59;12.00;79.52
74661;SHT31;63191;39.566;2.654;2022-12-26T07:15:24;12.05;79.33
74661;SHT31;63191;39.566;2.654;2022-12-26T07:17:50;12.14;79.10
74661;SHT31;63191;39.566;2.654;2022-12-26T07:20:16;12.22;78.86
74661;SHT31;63191;39.566;2.654;2022-12-26T07:22:42;12.34;78.66
74661;SHT31;63191;39.566;2.654;2022-12-26T07:25:10;12.44;78.29
74661;SHT31;63191;39.566;2.654;2022-12-26T07:27:36;12.58;77.88
74661;SHT31;63191;39.566;2.654;2022-12-26T07:30:04;12.73;77.60
74661;SHT31;63191;39.566;2.654;2022-12-26T07:32:31;12.90;77.24
74661;SHT31;63191;39.566;2.654;2022-12-26T07:34:56;13.13;76.82
74661;SHT31;63191;39.566;2.654;2022-12-26T07:37:22;13.34;76.32
74661;SHT31;63191;39.566;2.654;2022-12-26T07:39:48;13.61;75.73
74661;SHT31;63191;39.566;2.654;2022-12-26T07:42:14;13.93;75.24
74661;SHT31;63191;39.566;2.654;2022-12-26T07:44:44;14.30;74.67
74661;SHT31;63191;39.566;2.654;2022-12-26T07:47:09;14.63;74.01
74661;SHT31;63191;39.566;2.654;2022-12-26T07:49:35;14.99;73.02
74661;SHT31;63191;39.566;2.654;2022-12-26T07:52:01;15.57;71.84
74661;SHT31;63191;39.566;2.654;2022-12-26T07:54:28;16.33;71.10
74661;SHT31;63191;39.566;2.654;2022-12-26T07:56:57;17.12;70.06
74661;SHT31;63191;39.566;2.654;2022-12-26T07:59:23;17.72;68.61
74661;SHT31;63191;39.566;2.654;2022-12-26T08:01:51;18.20;66.98
74661;SHT31;63191;39.566;2.654;2022-12-26T08:04:17;18.78;65.51
74661;SHT31;63191;39.566;2.654;2022-12-26T08:06:44;19.20;63.93
74661;SHT31;63191;39.566;2.654;2022-12-26T08:09:11;19.52;62.84
74661;SHT31;63191;39.566;2.654;2022-12-26T08:11:58;20.05;61.71
74661;SHT31;63191;39.566;2.654;2022-12-26T08:14:24;20.65;60.46
74661;SHT31;63191;39.566;2.654;2022-12-26T08:16:50;21.28;59.13
74661;SHT31;63191;39.566;2.654;2022-12-26T08:19:16;21.84;57.56
74661;SHT31;63191;39.566;2.654;2022-12-26T08:21:41;22.33;55.62
74661;SHT31;63191;39.566;2.654;2022-12-26T08:24:07;22.59;53.98
74661;SHT31;63191;39.566;2.654;2022-12-26T08:26:33;22.71;53.86
74661;SHT31;63191;39.566;2.654;2022-12-26T08:28:59;23.15;53.97
74661;SHT31;63191;39.566;2.654;2022-12-26T08:31:24;23.95;52.94
74661;SHT31;63191;39.566;2.654;2022-12-26T08:33:53;24.85;51.26
74661;SHT31;63191;39.566;2.654;2022-12-26T08:36:20;25.69;48.95
74661;SHT31;63191;39.566;2.654;2022-12-26T08:38:46;26.43;47.59
74661;SHT31;63191;39.566;2.654;2022-12-26T08:41:13;27.11;46.40
74661;SHT31;63191;39.566;2.654;2022-12-26T08:43:41;27.88;45.14
74661;SHT31;63191;39.566;2.654;2022-12-26T08:46:08;28.67;43.85
74661;SHT31;63191;39.566;2.654;2022-12-26T08:48:37;29.42;42.03
74661;SHT31;63191;39.566;2.654;2022-12-26T08:51:05;30.09;41.23
74661;SHT31;63191;39.566;2.654;2022-12-26T08:53:35;30.83;40.56
74661;SHT31;63191;39.566;2.654;2022-12-26T08:56:03;31.61;39.05
74661;SHT31;63191;39.566;2.654;2022-12-26T08:58:31;32.37;37.65
74661;SHT31;63191;39.566;2.654;2022-12-26T09:01:16;33.10;36.61
74661;SHT31;63191;39.566;2.654;2022-12-26T09:03:57;33.85;35.68
74661;SHT31;63191;39.566;2.654;2022-12-26T09:06:26;34.51;34.88
74661;SHT31;63191;39.566;2.654;2022-12-26T09:08:53;35.16;33.94
74661;SHT31;63191;39.566;2.654;2022-12-26T09:11:20;35.76;32.92
74661;SHT31;63191;39.566;2.654;2022-12-26T09:13:51;36.23;31.67
74661;SHT31;63191;39.566;2.654;2022-12-26T09:16:19;36.59;30.88
74661;SHT31;63191;39.566;2.654;2022-12-26T09:18:51;36.94;30.01
74661;SHT31;63191;39.566;2.654;2022-12-26T09:21:20;37.33;29.43
74661;SHT31;63191;39.566;2.654;2022-12-26T09:23:45;37.66;29.02
74661;SHT31;63191;39.566;2.654;2022-12-26T09:26:12;38.04;28.65
74661;SHT31;63191;39.566;2.654;2022-12-26T09:28:43;38.57;28.32
74661;SHT31;63191;39.566;2.654;2022-12-26T09:31:13;39.24;28.08
74661;SHT31;63191;39.566;2.654;2022-12-26T09:33:41;39.76;27.32
74661;SHT31;63191;39.566;2.654;2022-12-26T09:36:10;40.15;26.65
74661;SHT31;63191;39.566;2.654;2022-12-26T09:38:38;40.56;26.15
74661;SHT31;63191;39.566;2.654;2022-12-26T09:41:16;40.95;25.72
74661;SHT31;63191;39.566;2.654;2022-12-26T09:44:26;41.44;25.22
74661;SHT31;63191;39.566;2.654;2022-12-26T09:47:33;42.06;25.31
74661;SHT31;63191;39.566;2.654;2022-12-26T09:50:05;42.51;24.64
74661;SHT31;63191;39.566;2.654;2022-12-26T09:52:41;42.76;23.84
74661;SHT31;63191;39.566;2.654;2022-12-26T09:58:23;43.27;22.39
74661;SHT31;63191;39.566;2.654;2022-12-26T10:03:38;43.38;22.39
74661;SHT31;63191;39.566;2.654;2022-12-26T10:06:13;43.60;22.40
74661;SHT31;63191;39.566;2.654;2022-12-26T10:08:45;43.85;21.86
74661;SHT31;63191;39.566;2.654;2022-12-26T10:11:38;44.05;21.14
74661;SHT31;63191;39.566;2.654;2022-12-26T10:17:33;44.34;20.74
74661;SHT31;63191;39.566;2.654;2022-12-26T10:28:46;44.36;20.43
74661;SHT31;63191;39.566;2.654;2022-12-26T10:34:49;45.08;20.71
74661;SHT31;63191;39.566;2.654;2022-12-26T10:37:19;45.21;19.55
74661;SHT31;63191;39.566;2.654;2022-12-26T10:42:53;44.76;19.96
74661;SHT31;63191;39.566;2.654;2022-12-26T10:48:02;45.43;20.49
74661;SHT31;63191;39.566;2.654;2022-12-26T10:50:29;45.89;19.82
74661;SHT31;63191;39.566;2.654;2022-12-26T10:52:59;45.85;19.15
74661;SHT31;63191;39.566;2.654;2022-12-26T10:55:32;45.60;19.14
74661;SHT31;63191;39.566;2.654;2022-12-26T10:58:02;45.60;18.86
74661;SHT31;63191;39.566;2.654;2022-12-26T11:01:31;45.68;18.69
74661;SHT31;63191;39.566;2.654;2022-12-26T11:04:02;45.71;18.50
74661;SHT31;63191;39.566;2.654;2022-12-26T11:06:36;45.99;19.03
74661;SHT31;63191;39.566;2.654;2022-12-26T11:09:05;46.39;18.54
74661;SHT31;63191;39.566;2.654;2022-12-26T11:11:32;46.11;17.37
74661;SHT31;63191;39.566;2.654;2022-12-26T11:14:29;45.40;17.53
74661;SHT31;63191;39.566;2.654;2022-12-26T11:17:03;44.90;17.58
74661;SHT31;63191;39.566;2.654;2022-12-26T11:19:37;44.48;17.72
74661;SHT31;63191;39.566;2.654;2022-12-26T11:27:33;44.34;18.71
74661;SHT31;63191;39.566;2.654;2022-12-26T11:32:41;45.38;18.00
74661;SHT31;63191;39.566;2.654;2022-12-26T11:35:18;45.74;17.71
74661;SHT31;63191;39.566;2.654;2022-12-26T11:37:49;46.04;17.10
74661;SHT31;63191;39.566;2.654;2022-12-26T11:40:26;46.10;17.30
74661;SHT31;63191;39.566;2.654;2022-12-26T11:42:58;46.13;17.31
74661;SHT31;63191;39.566;2.654;2022-12-26T11:45:28;46.17;16.89
74661;SHT31;63191;39.566;2.654;2022-12-26T11:47:56;46.36;17.22
74661;SHT31;63191;39.566;2.654;2022-12-26T11:50:28;46.58;16.31
74661;SHT31;63191;39.566;2.654;2022-12-26T11:57:59;46.92;16.62
74661;SHT31;63191;39.566;2.654;2022-12-26T12:03:20;46.99;17.13
74661;SHT31;63191;39.566;2.654;2022-12-26T12:12:30;46.47;16.39
74661;SHT31;63191;39.566;2.654;2022-12-26T12:30:08;43.68;17.15
74661;SHT31;63191;39.566;2.654;2022-12-26T12:35:47;43.11;17.47
74661;SHT31;63191;39.566;2.654;2022-12-26T12:44:49;42.16;18.27
74661;SHT31;63191;39.566;2.654;2022-12-26T12:48:16;40.90;18.87
74661;SHT31;63191;39.566;2.654;2022-12-26T12:56:47;39.97;20.25
74661;SHT31;63191;39.566;2.654;2022-12-26T13:02:23;39.83;21.15
74661;SHT31;63191;39.566;2.654;2022-12-26T13:07:44;38.93;21.49
74661;SHT31;63191;39.566;2.654;2022-12-26T13:10:21;38.51;21.55
74661;SHT31;63191;39.566;2.654;2022-12-26T13:12:54;38.31;21.68
74661;SHT31;63191;39.566;2.654;2022-12-26T13:15:25;38.06;21.42
74661;SHT31;63191;39.566;2.654;2022-12-26T13:18:01;37.74;21.76
74661;SHT31;63191;39.566;2.654;2022-12-26T13:23:16;37.23;22.35
74661;SHT31;63191;39.566;2.654;2022-12-26T13:26:12;36.10;23.29
74661;SHT31;63191;39.566;2.654;2022-12-26T13:29:01;34.86;24.73
74661;SHT31;63191;39.566;2.654;2022-12-26T13:31:34;33.83;26.06
74661;SHT31;63191;39.566;2.654;2022-12-26T13:34:01;33.05;27.60
74661;SHT31;63191;39.566;2.654;2022-12-26T13:36:33;32.47;29.16
74661;SHT31;63191;39.566;2.654;2022-12-26T13:41:37;31.39;31.27
74661;SHT31;63191;39.566;2.654;2022-12-26T13:44:29;31.45;31.63
74661;SHT31;63191;39.566;2.654;2022-12-26T13:46:57;31.68;31.72
74661;SHT31;63191;39.566;2.654;2022-12-26T13:54:35;33.21;31.00
74661;SHT31;63191;39.566;2.654;2022-12-26T14:00:06;33.61;31.29
74661;SHT31;63191;39.566;2.654;2022-12-26T14:05:53;33.71;31.70
74661;SHT31;63191;39.566;2.654;2022-12-26T14:14:43;33.46;32.69
74661;SHT31;63191;39.566;2.654;2022-12-26T14:17:30;33.32;32.89
74661;SHT31;63191;39.566;2.654;2022-12-26T14:26:12;29.77;37.78
74661;SHT31;63191;39.566;2.654;2022-12-26T14:29:49;28.84;39.64
74661;SHT31;63191;39.566;2.654;2022-12-26T14:41:03;28.55;41.76
74661;SHT31;63191;39.566;2.654;2022-12-26T14:44:08;28.53;41.82
74661;SHT31;63191;39.566;2.654;2022-12-26T14:52:44;27.13;44.89
74661;SHT31;63191;39.566;2.654;2022-12-26T14:54:56;26.74;46.20
74661;SHT31;63191;39.566;2.654;2022-12-26T14:57:38;26.49;46.71
74661;SHT31;63191;39.566;2.654;2022-12-26T15:05:46;25.81;48.95
74661;SHT31;63191;39.566;2.654;2022-12-26T15:19:31;24.37;53.32
74661;SHT31;63191;39.566;2.654;2022-12-26T15:25:23;23.30;55.70
74661;SHT31;63191;39.566;2.654;2022-12-26T16:00:57;19.15;67.68
74661;SHT31;63191;39.566;2.654;2022-12-26T16:03:28;19.08;67.99
74661;SHT31;63191;39.566;2.654;2022-12-26T16:12:54;18.92;68.32
74661;SHT31;63191;39.566;2.654;2022-12-26T16:15:01;18.86;68.20
74661;SHT31;63191;39.566;2.654;2022-12-26T16:17:33;18.80;68.10
74661;SHT31;63191;39.566;2.654;2022-12-26T16:20:10;18.71;67.95
74661;SHT31;63191;39.566;2.654;2022-12-26T16:23:20;18.61;68.06
74661;SHT31;63191;39.566;2.654;2022-12-26T16:25:52;18.53;67.73
74661;SHT31;63191;39.566;2.654;2022-12-26T16:28:24;18.42;67.47
74661;SHT31;63191;39.566;2.654;2022-12-26T16:31:06;18.31;67.75
74661;SHT31;63191;39.566;2.654;2022-12-26T16:33:39;18.22;67.95
74661;SHT31;63191;39.566;2.654;2022-12-26T16:36:08;18.11;68.21
74661;SHT31;63191;39.566;2.654;2022-12-26T16:38:36;18.00;68.26
74661;SHT31;63191;39.566;2.654;2022-12-26T16:41:05;17.91;68.68
74661;SHT31;63191;39.566;2.654;2022-12-26T16:43:53;17.79;69.03
74661;SHT31;63191;39.566;2.654;2022-12-26T16:46:25;17.72;69.26
74661;SHT31;63191;39.566;2.654;2022-12-26T16:48:56;17.67;69.48
74661;SHT31;63191;39.566;2.654;2022-12-26T16:51:36;17.61;69.80
74661;SHT31;63191;39.566;2.654;2022-12-26T16:56:42;17.50;70.00
74661;SHT31;63191;39.566;2.654;2022-12-26T16:59:17;17.42;70.21
74661;SHT31;63191;39.566;2.654;2022-12-26T17:01:50;17.35;70.35
74661;SHT31;63191;39.566;2.654;2022-12-26T17:04:20;17.27;70.44
74661;SHT31;63191;39.566;2.654;2022-12-26T17:09:28;17.09;70.84
74661;SHT31;63191;39.566;2.654;2022-12-26T17:11:58;17.01;71.06
74661;SHT31;63191;39.566;2.654;2022-12-26T17:14:29;16.93;71.15
74661;SHT31;63191;39.566;2.654;2022-12-26T17:17:03;16.87;71.10
74661;SHT31;63191;39.566;2.654;2022-12-26T17:19:48;16.83;71.08
74661;SHT31;63191;39.566;2.654;2022-12-26T17:22:18;16.77;71.00
74661;SHT31;63191;39.566;2.654;2022-12-26T17:25:39;16.72;71.16
74661;SHT31;63191;39.566;2.654;2022-12-26T17:27:44;16.67;71.40
74661;SHT31;63191;39.566;2.654;2022-12-26T17:30:19;16.61;71.51
74661;SHT31;63191;39.566;2.654;2022-12-26T17:32:53;16.56;71.59
74661;SHT31;63191;39.566;2.654;2022-12-26T17:35:26;16.50;71.60
74661;SHT31;63191;39.566;2.654;2022-12-26T17:38:00;16.45;71.50
74661;SHT31;63191;39.566;2.654;2022-12-26T17:40:35;16.37;71.40
74661;SHT31;63191;39.566;2.654;2022-12-26T17:45:41;16.26;71.49
74661;SHT31;63191;39.566;2.654;2022-12-26T17:48:09;16.24;71.57
74661;SHT31;63191;39.566;2.654;2022-12-26T17:50:37;16.20;71.60
74661;SHT31;63191;39.566;2.654;2022-12-26T17:56:00;16.11;71.70
74661;SHT31;63191;39.566;2.654;2022-12-26T17:58:31;16.06;71.70
74661;SHT31;63191;39.566;2.654;2022-12-26T18:00:58;16.03;71.64
74661;SHT31;63191;39.566;2.654;2022-12-26T18:03:25;15.98;71.52
74661;SHT31;63191;39.566;2.654;2022-12-26T18:05:53;15.92;71.40
74661;SHT31;63191;39.566;2.654;2022-12-26T18:08:30;15.87;71.30
74661;SHT31;63191;39.566;2.654;2022-12-26T18:11:03;15.81;71.22
74661;SHT31;63191;39.566;2.654;2022-12-26T18:13:32;15.77;71.11
74661;SHT31;63191;39.566;2.654;2022-12-26T18:15:58;15.73;71.04
74661;SHT31;63191;39.566;2.654;2022-12-26T18:18:34;15.68;70.88
74661;SHT31;63191;39.566;2.654;2022-12-26T18:21:08;15.67;70.88
74661;SHT31;63191;39.566;2.654;2022-12-26T18:23:36;15.65;70.97
74661;SHT31;63191;39.566;2.654;2022-12-26T18:26:04;15.64;70.94
74661;SHT31;63191;39.566;2.654;2022-12-26T18:28:44;15.60;70.89
74661;SHT31;63191;39.566;2.654;2022-12-26T18:31:19;15.56;70.90
74661;SHT31;63191;39.566;2.654;2022-12-26T18:33:45;15.52;70.90
74661;SHT31;63191;39.566;2.654;2022-12-26T18:36:11;15.50;70.87
74661;SHT31;63191;39.566;2.654;2022-12-26T18:38:39;15.47;70.83
74661;SHT31;63191;39.566;2.654;2022-12-26T18:41:06;15.43;70.84
74661;SHT31;63191;39.566;2.654;2022-12-26T18:43:41;15.40;70.91
74661;SHT31;63191;39.566;2.654;2022-12-26T18:46:14;15.35;70.85
74661;SHT31;63191;39.566;2.654;2022-12-26T18:48:42;15.31;70.74
74661;SHT31;63191;39.566;2.654;2022-12-26T18:51:08;15.26;70.65
74661;SHT31;63191;39.566;2.654;2022-12-26T18:53:34;15.24;70.69
74661;SHT31;63191;39.566;2.654;2022-12-26T18:55:59;15.22;70.57
74661;SHT31;63191;39.566;2.654;2022-12-26T18:58:25;15.19;70.48
74661;SHT31;63191;39.566;2.654;2022-12-26T19:00:51;15.17;70.42
74661;SHT31;63191;39.566;2.654;2022-12-26T19:03:17;15.13;70.40
74661;SHT31;63191;39.566;2.654;2022-12-26T19:05:42;15.09;70.54
74661;SHT31;63191;39.566;2.654;2022-12-26T19:08:08;15.06;70.81
74661;SHT31;63191;39.566;2.654;2022-12-26T19:10:35;15.02;70.97
74661;SHT31;63191;39.566;2.654;2022-12-26T19:13:01;15.00;71.00
74661;SHT31;63191;39.566;2.654;2022-12-26T19:15:31;14.97;70.99
74661;SHT31;63191;39.566;2.654;2022-12-26T19:18:01;14.92;71.00
74661;SHT31;63191;39.566;2.654;2022-12-26T19:20:28;14.88;71.07
74661;SHT31;63191;39.566;2.654;2022-12-26T19:22:54;14.83;71.18
74661;SHT31;63191;39.566;2.654;2022-12-26T19:25:21;14.79;71.20
74661;SHT31;63191;39.566;2.654;2022-12-26T19:27:49;14.78;71.20
74661;SHT31;63191;39.566;2.654;2022-12-26T19:30:16;14.76;71.20
74661;SHT31;63191;39.566;2.654;2022-12-26T19:32:43;14.73;71.20
74661;SHT31;63191;39.566;2.654;2022-12-26T19:35:10;14.69;71.20
74661;SHT31;63191;39.566;2.654;2022-12-26T19:37:38;14.67;71.20
74661;SHT31;63191;39.566;2.654;2022-12-26T19:40:04;14.62;71.33
74661;SHT31;63191;39.566;2.654;2022-12-26T19:42:31;14.59;71.47
74661;SHT31;63191;39.566;2.654;2022-12-26T19:44:58;14.55;71.50
74661;SHT31;63191;39.566;2.654;2022-12-26T19:47:25;14.50;71.50
74661;SHT31;63191;39.566;2.654;2022-12-26T19:49:52;14.46;71.50
74661;SHT31;63191;39.566;2.654;2022-12-26T19:52:17;14.42;71.58
74661;SHT31;63191;39.566;2.654;2022-12-26T19:54:43;14.36;71.66
74661;SHT31;63191;39.566;2.654;2022-12-26T19:57:09;14.31;71.78
74661;SHT31;63191;39.566;2.654;2022-12-26T19:59:34;14.28;71.90
74661;SHT31;63191;39.566;2.654;2022-12-26T20:02:01;14.26;71.96
74661;SHT31;63191;39.566;2.654;2022-12-26T20:04:27;14.24;72.00
74661;SHT31;63191;39.566;2.654;2022-12-26T20:06:56;14.22;72.02
74661;SHT31;63191;39.566;2.654;2022-12-26T20:09:24;14.20;72.08